Time;durP1;ratioP1;P1;durP2;ratioP2;P2;SDS_P1;SDS_P2;PMS_P1;PMS_P2;Temp;Humidity;BMP_temperature;BMP_pressure;BME280_temperature;BME280_humidity;BME280_pressure;Samples;Min_cycle;Max_cycle;Signal;HPM_P1;HPM_P2
2021/11/25 00:00:51;;;;;;;78.50;41.40;;;;;;;0.56;67.92;99360.34;102765;1321;99170;-71
2021/11/25 00:03:21;;;;;;;74.20;40.70;;;;;;;0.54;68.12;99357.44;102893;1319;108827;-70
2021/11/25 00:05:49;;;;;;;74.00;40.30;;;;;;;0.55;68.00;99353.39;102796;1322;97900;-70
2021/11/25 00:08:17;;;;;;;77.60;40.90;;;;;;;0.55;68.22;99349.54;102931;1324;97979;-70
2021/11/25 00:10:49;;;;;;;72.20;41.90;;;;;;;0.54;68.05;99346.77;102874;1319;111890;-69
2021/11/25 00:13:16;;;;;;;72.60;43.20;;;;;;;0.53;68.13;99348.37;102866;1318;97923;-69
2021/11/25 00:15:44;;;;;;;75.40;41.50;;;;;;;0.52;68.08;99344.73;102584;1317;108523;-69
2021/11/25 00:18:12;;;;;;;71.80;38.40;;;;;;;0.52;68.16;99346.67;102878;1319;97916;-70
2021/11/25 00:20:40;;;;;;;70.30;40.20;;;;;;;0.52;68.24;99344.39;102955;1318;97895;-70
2021/11/25 00:23:08;;;;;;;73.50;38.80;;;;;;;0.52;68.18;99340.72;102682;1325;112103;-69
2021/11/25 00:25:39;;;;;;;81.70;39.80;;;;;;;0.48;68.13;99339.61;102750;1326;97928;-69
2021/11/25 00:28:08;;;;;;;72.70;39.60;;;;;;;0.42;67.97;99338.70;102727;1322;107893;-69
2021/11/25 00:30:37;;;;;;;70.30;39.80;;;;;;;0.35;67.92;99336.29;102663;1322;98038;-69
2021/11/25 00:33:05;;;;;;;68.90;37.40;;;;;;;0.24;67.89;99330.46;102891;1326;97929;-69
2021/11/25 00:35:33;;;;;;;67.60;37.20;;;;;;;0.17;68.09;99327.18;102736;1319;112203;-70
2021/11/25 00:38:02;;;;;;;69.70;39.20;;;;;;;0.11;67.97;99329.05;102742;1321;96564;-70
2021/11/25 00:40:30;;;;;;;76.80;40.10;;;;;;;0.08;68.11;99324.23;102811;1319;107421;-71
2021/11/25 00:42:59;;;;;;;73.80;40.90;;;;;;;0.03;68.25;99322.98;102912;1319;95211;-69
2021/11/25 00:45:28;;;;;;;70.80;39.10;;;;;;;-0.06;68.30;99315.90;102729;1325;97925;-69
2021/11/25 00:47:55;;;;;;;77.50;40.30;;;;;;;-0.16;68.46;99310.89;102721;1325;112084;-70
2021/11/25 00:50:25;;;;;;;72.50;38.40;;;;;;;-0.25;68.74;99311.15;102603;1319;96215;-71
2021/11/25 00:52:53;;;;;;;73.20;38.40;;;;;;;-0.35;68.73;99312.23;102873;1319;107938;-70
2021/11/25 00:55:22;;;;;;;83.70;44.70;;;;;;;-0.40;68.65;99308.17;102747;1320;96481;-71
2021/11/25 00:57:51;;;;;;;78.10;42.20;;;;;;;-0.39;68.62;99305.88;102838;1321;98015;-70
2021/11/25 01:00:24;;;;;;;73.70;41.80;;;;;;;-0.39;68.54;99302.92;103008;1322;110077;-70
2021/11/25 01:02:52;;;;;;;70.20;38.60;;;;;;;-0.41;68.73;99297.90;102909;1319;97877;-71
2021/11/25 01:05:20;;;;;;;83.00;42.80;;;;;;;-0.38;68.73;99298.02;102918;1319;106775;-71
2021/11/25 01:07:49;;;;;;;78.90;43.60;;;;;;;-0.36;68.81;99295.02;102870;1319;96121;-70
2021/11/25 01:10:24;;;;;;;82.40;44.50;;;;;;;-0.34;68.81;99289.73;102727;1322;98080;-71
2021/11/25 01:12:56;;;;;;;79.50;44.20;;;;;;;-0.33;68.97;99288.99;102809;1322;111071;-71
2021/11/25 01:15:31;;;;;;;79.80;45.50;;;;;;;-0.28;69.18;99283.14;102840;1325;95957;-70
2021/11/25 01:18:08;;;;;;;81.30;44.70;;;;;;;-0.25;69.03;99280.98;102903;1318;107622;-69
2021/11/25 01:20:41;;;;;;;82.00;42.80;;;;;;;-0.22;69.25;99277.60;102868;1318;97926;-69
2021/11/25 01:23:13;;;;;;;79.70;44.60;;;;;;;-0.20;69.15;99274.59;102924;1325;97931;-69
2021/11/25 01:25:44;;;;;;;78.10;43.50;;;;;;;-0.19;69.09;99274.70;102920;1319;111906;-69
2021/11/25 01:28:12;;;;;;;82.80;45.80;;;;;;;-0.19;69.31;99272.63;102985;1326;98505;-70
2021/11/25 01:30:48;;;;;;;86.30;44.00;;;;;;;-0.20;69.29;99264.09;102903;1322;106495;-70
2021/11/25 01:33:20;;;;;;;83.30;44.10;;;;;;;-0.18;69.23;99259.88;102866;1320;95454;-70
2021/11/25 01:35:48;;;;;;;80.10;42.60;;;;;;;-0.18;69.34;99256.90;102800;1322;98103;-69
2021/11/25 01:38:21;;;;;;;78.70;43.30;;;;;;;-0.17;69.27;99253.58;102857;1318;112073;-70
2021/11/25 01:40:50;;;;;;;75.50;39.30;;;;;;;-0.17;69.25;99246.25;102817;1321;98019;-70
2021/11/25 01:43:24;;;;;;;90.20;51.50;;;;;;;-0.16;69.18;99238.21;102783;1327;108437;-69
2021/11/25 01:45:56;;;;;;;78.90;45.80;;;;;;;-0.16;69.34;99237.51;102713;1322;95360;-69
2021/11/25 01:48:24;;;;;;;86.40;44.10;;;;;;;-0.15;69.29;99235.04;102781;1325;96582;-70
2021/11/25 01:50:53;;;;;;;80.10;45.40;;;;;;;-0.14;69.24;99232.23;102731;1322;112079;-70
2021/11/25 01:53:21;;;;;;;94.80;49.90;;;;;;;-0.15;69.35;99231.91;102797;1323;97911;-70
2021/11/25 01:55:50;;;;;;;86.80;48.20;;;;;;;-0.18;69.29;99234.09;102897;1318;108647;-70
2021/11/25 01:58:18;;;;;;;89.50;47.00;;;;;;;-0.20;69.48;99230.80;102996;1319;98018;-71
2021/11/25 02:00:52;;;;;;;79.50;41.90;;;;;;;-0.20;69.39;99229.42;102986;1319;97951;-70
2021/11/25 02:03:23;;;;;;;76.20;42.90;;;;;;;-0.20;69.34;99220.17;102824;1325;111509;-69
2021/11/25 02:05:59;;;;;;;70.00;38.70;;;;;;;-0.21;69.21;99216.22;102915;1319;97966;-70
2021/11/25 02:08:27;;;;;;;64.10;35.80;;;;;;;-0.22;69.30;99215.22;102736;1319;108247;-71
2021/11/25 02:11:00;;;;;;;66.30;33.40;;;;;;;-0.23;69.34;99210.69;102762;1322;98037;-70
2021/11/25 02:13:32;;;;;;;60.10;30.80;;;;;;;-0.18;69.53;99200.77;102776;1322;97864;-70
2021/11/25 02:16:04;;;;;;;60.30;32.00;;;;;;;-0.11;69.64;99194.85;102745;1322;111480;-71
2021/11/25 02:18:32;;;;;;;52.50;28.30;;;;;;;-0.02;69.65;99187.11;102892;1321;97929;-69
2021/11/25 02:21:04;;;;;;;55.90;29.80;;;;;;;0.04;69.57;99182.41;102916;1319;108289;-70
2021/11/25 02:23:32;;;;;;;60.50;30.60;;;;;;;0.10;69.72;99183.83;102900;1322;97968;-69
2021/11/25 02:26:04;;;;;;;55.40;29.70;;;;;;;0.16;69.80;99182.44;102861;1321;96672;-69
2021/11/25 02:28:38;;;;;;;57.80;30.20;;;;;;;0.21;69.68;99180.54;102973;1319;111481;-69
2021/11/25 02:31:07;;;;;;;56.40;30.70;;;;;;;0.25;69.84;99174.48;102736;1321;98000;-70
2021/11/25 02:33:44;;;;;;;52.30;27.70;;;;;;;0.28;69.82;99173.02;102901;1319;108558;-70
2021/11/25 02:36:14;;;;;;;54.20;28.60;;;;;;;0.33;69.74;99175.00;102909;1319;97937;-70
2021/11/25 02:38:44;;;;;;;54.10;27.30;;;;;;;0.36;69.84;99172.80;102956;1317;97895;-70
2021/11/25 02:41:14;;;;;;;54.10;28.20;;;;;;;0.40;69.95;99169.02;102916;1319;112111;-71
2021/11/25 02:43:42;;;;;;;50.40;25.50;;;;;;;0.42;70.05;99164.05;102901;1326;96344;-72
2021/11/25 02:46:15;;;;;;;50.10;26.80;;;;;;;0.45;69.87;99161.02;102875;1318;107612;-70
2021/11/25 02:48:50;;;;;;;50.80;28.80;;;;;;;0.48;70.03;99158.48;102950;1325;98411;-71
2021/11/25 02:51:25;;;;;;;53.40;28.90;;;;;;;0.51;70.04;99155.08;99866;1320;4060983;-70
2021/11/25 02:53:58;;;;;;;49.40;27.70;;;;;;;0.54;70.08;99151.67;102837;1322;109911;-71
2021/11/25 02:56:30;;;;;;;52.50;26.30;;;;;;;0.56;70.10;99148.83;102861;1319;95631;-71
2021/11/25 02:59:01;;;;;;;49.80;26.00;;;;;;;0.59;70.02;99148.04;102723;1322;107915;-70
2021/11/25 03:01:37;;;;;;;53.80;27.30;;;;;;;0.63;70.21;99143.38;102758;1321;96534;-70
2021/11/25 03:04:09;;;;;;;46.80;26.50;;;;;;;0.66;70.25;99141.73;102740;1322;96319;-69
2021/11/25 03:06:37;;;;;;;49.00;26.40;;;;;;;0.68;70.31;99141.48;102828;1321;111284;-70
2021/11/25 03:09:07;;;;;;;56.50;28.40;;;;;;;0.71;70.10;99142.78;102811;1322;97922;-70
2021/11/25 03:11:40;;;;;;;48.40;27.60;;;;;;;0.74;70.27;99139.72;102745;1325;108517;-71
2021/11/25 03:14:10;;;;;;;48.90;24.00;;;;;;;0.76;70.23;99133.23;102725;1322;98669;-70
2021/11/25 03:16:39;;;;;;;46.60;25.30;;;;;;;0.77;70.39;99126.75;102832;1322;97912;-71
2021/11/25 03:19:07;;;;;;;50.20;26.20;;;;;;;0.75;70.55;99126.24;102935;1325;111480;-70
2021/11/25 03:21:35;;;;;;;51.70;27.80;;;;;;;0.74;70.47;99125.25;102932;1325;98002;-71
2021/11/25 03:24:08;;;;;;;49.40;27.00;;;;;;;0.73;70.47;99119.68;102997;1322;106822;-71
2021/11/25 03:26:35;;;;;;;49.10;25.70;;;;;;;0.74;70.54;99116.17;103010;1318;97850;-70
2021/11/25 03:29:03;;;;;;;48.90;25.90;;;;;;;0.75;70.46;99114.04;102988;1319;97900;-70
2021/11/25 03:31:37;;;;;;;47.20;25.50;;;;;;;0.77;70.49;99107.67;103022;1318;111532;-70
2021/11/25 03:34:04;;;;;;;51.60;25.40;;;;;;;0.80;70.61;99102.04;103012;1319;97862;-70
2021/11/25 03:36:37;;;;;;;49.10;26.40;;;;;;;0.81;70.48;99099.53;102964;1319;108524;-70
2021/11/25 03:39:05;;;;;;;48.00;25.60;;;;;;;0.83;70.62;99098.92;102953;1322;98035;-69
2021/11/25 03:41:33;;;;;;;48.70;25.40;;;;;;;0.85;70.64;99098.16;103027;1318;97999;-69
2021/11/25 03:44:05;;;;;;;49.30;24.30;;;;;;;0.89;70.69;99099.80;102954;1322;112142;-69
2021/11/25 03:46:35;;;;;;;45.50;23.90;;;;;;;0.91;70.66;99098.88;102999;1319;97899;-69
2021/11/25 03:49:10;;;;;;;47.50;25.00;;;;;;;0.93;70.67;99098.09;102920;1318;108416;-69
2021/11/25 03:51:38;;;;;;;46.00;24.70;;;;;;;0.94;70.78;99094.93;102747;1325;98727;-69
2021/11/25 03:54:06;;;;;;;44.10;23.90;;;;;;;0.95;70.87;99092.80;102719;1321;97934;-69
2021/11/25 03:56:34;;;;;;;41.90;22.90;;;;;;;0.95;70.69;99092.08;102800;1325;111454;-69
2021/11/25 03:59:01;;;;;;;42.40;23.30;;;;;;;0.96;70.84;99092.22;102840;1321;97882;-70
2021/11/25 04:01:29;;;;;;;42.40;23.30;;;;;;;0.99;70.72;99087.77;102830;1322;108011;-68
2021/11/25 04:04:01;;;;;;;43.50;23.40;;;;;;;1.02;70.86;99081.91;103046;1322;97870;-71
2021/11/25 04:06:29;;;;;;;42.30;22.90;;;;;;;1.04;70.85;99075.55;102892;1318;98464;-70
2021/11/25 04:09:02;;;;;;;46.90;23.70;;;;;;;1.05;70.98;99067.84;103003;1322;111591;-70
2021/11/25 04:11:30;;;;;;;39.40;21.80;;;;;;;1.02;71.06;99066.19;103079;1319;97918;-70
2021/11/25 04:14:02;;;;;;;41.80;22.70;;;;;;;0.99;70.81;99062.64;102894;1321;107843;-71
2021/11/25 04:16:34;;;;;;;39.00;20.50;;;;;;;0.97;70.83;99064.46;102811;1321;97980;-71
2021/11/25 04:19:06;;;;;;;41.20;22.10;;;;;;;0.98;71.07;99062.14;102863;1325;97902;-70
2021/11/25 04:21:34;;;;;;;42.10;21.90;;;;;;;0.99;70.91;99054.77;102903;1320;112226;-69
2021/11/25 04:24:05;;;;;;;37.50;19.60;;;;;;;0.99;71.01;99048.11;103040;1326;97882;-70
2021/11/25 04:26:34;;;;;;;40.20;20.10;;;;;;;0.99;71.00;99043.75;103111;1319;107946;-68
2021/11/25 04:29:06;;;;;;;40.60;21.70;;;;;;;1.00;71.04;99041.83;102985;1318;97930;-69
2021/11/25 04:37:23;;;;;;;40.40;21.10;;;;;;;1.00;71.09;99039.20;103059;1320;97889;-69
2021/11/25 04:39:51;;;;;;;44.30;22.50;;;;;;;1.00;70.90;99035.52;102828;1322;107951;-69
2021/11/25 04:42:23;;;;;;;41.10;20.90;;;;;;;0.99;71.01;99030.14;103068;1319;97982;-70
2021/11/25 04:44:55;;;;;;;42.80;21.50;;;;;;;0.98;70.94;99021.98;103021;1323;97915;-69
2021/11/25 04:47:22;;;;;;;38.40;21.30;;;;;;;0.95;71.02;99016.33;102894;1319;111529;-69
2021/11/25 04:49:54;;;;;;;43.00;21.70;;;;;;;0.93;70.98;99017.27;103019;1322;98008;-69
2021/11/25 04:52:22;;;;;;;38.50;21.10;;;;;;;0.89;70.96;99013.54;103397;1320;108494;-69
2021/11/25 04:54:50;;;;;;;35.60;19.40;;;;;;;0.85;70.91;99015.07;102835;1322;97899;-70
2021/11/25 04:57:22;;;;;;;39.40;20.80;;;;;;;0.81;71.03;99005.95;102939;1320;97933;-70
2021/11/25 04:59:51;;;;;;;39.40;20.50;;;;;;;0.78;70.97;99003.78;102905;1320;110990;-70
2021/11/25 05:02:18;;;;;;;40.80;21.80;;;;;;;0.77;71.05;99005.41;103054;1325;97974;-71
2021/11/25 05:04:50;;;;;;;38.10;19.90;;;;;;;0.75;70.99;99003.02;103016;1319;107839;-71
2021/11/25 05:07:18;;;;;;;40.20;19.90;;;;;;;0.77;71.05;98997.05;103068;1319;97922;-70
2021/11/25 05:09:46;;;;;;;39.50;19.50;;;;;;;0.77;71.12;98996.00;103061;1319;95291;-71
2021/11/25 05:12:18;;;;;;;36.60;18.80;;;;;;;0.78;71.05;98987.04;102883;1322;112200;-71
2021/11/25 05:14:49;;;;;;;36.80;19.70;;;;;;;0.80;71.04;98984.90;102867;1320;98523;-71
2021/11/25 05:17:18;;;;;;;35.10;17.60;;;;;;;0.81;70.99;98980.83;102870;1321;108721;-71
2021/11/25 05:19:46;;;;;;;39.10;19.80;;;;;;;0.82;71.06;98979.20;102896;1322;98523;-70
2021/11/25 05:22:14;;;;;;;36.70;18.80;;;;;;;0.83;71.04;98972.73;102905;1323;97958;-70
2021/11/25 05:24:42;;;;;;;38.80;19.20;;;;;;;0.83;70.93;98973.94;102901;1322;112778;-71
2021/11/25 05:27:14;;;;;;;36.70;18.80;;;;;;;0.83;71.13;98965.73;102898;1322;97896;-71
2021/11/25 05:29:42;;;;;;;36.30;19.50;;;;;;;0.83;71.08;98963.30;102891;1327;107850;-70
2021/11/25 05:32:16;;;;;;;37.20;19.80;;;;;;;0.83;71.09;98959.78;102893;1320;95305;-70
2021/11/25 05:34:48;;;;;;;33.50;18.00;;;;;;;0.86;71.23;98957.44;102902;1323;98050;-70
2021/11/25 05:37:20;;;;;;;33.20;17.50;;;;;;;0.89;71.07;98963.78;102934;1322;111542;-70
2021/11/25 05:39:48;;;;;;;35.10;17.40;;;;;;;0.92;71.03;98966.13;103071;1319;96365;-70
2021/11/25 05:42:17;;;;;;;35.40;18.60;;;;;;;0.93;71.24;98959.27;103081;1319;105952;-70
2021/11/25 05:44:49;;;;;;;32.90;16.50;;;;;;;0.94;71.08;98956.12;103050;1322;97863;-70
2021/11/25 05:47:21;;;;;;;33.80;18.30;;;;;;;0.94;70.91;98955.77;102920;1322;97908;-68
2021/11/25 05:49:53;;;;;;;35.30;17.80;;;;;;;0.94;70.87;98954.02;102885;1326;112205;-69
2021/11/25 05:52:21;;;;;;;35.90;16.10;;;;;;;0.94;70.86;98955.42;102909;1322;98145;-70
2021/11/25 05:54:52;;;;;;;32.80;16.20;;;;;;;0.92;70.95;98948.67;102947;1318;108429;-69
2021/11/25 05:57:20;;;;;;;33.50;15.60;;;;;;;0.91;70.84;98947.30;102880;1321;97889;-70
2021/11/25 05:59:47;;;;;;;37.90;19.90;;;;;;;0.90;70.92;98942.64;102900;1322;97848;-70
2021/11/25 06:02:16;;;;;;;35.90;19.10;;;;;;;0.85;71.04;98939.48;102919;1323;111190;-70
2021/11/25 06:04:49;;;;;;;33.90;17.70;;;;;;;0.84;70.88;98932.00;102818;1320;97958;-70
2021/11/25 06:07:17;;;;;;;35.00;17.60;;;;;;;0.84;71.12;98929.05;102833;1319;108434;-69
2021/11/25 06:09:50;;;;;;;36.40;17.20;;;;;;;0.83;70.99;98929.23;102848;1322;97922;-70
2021/11/25 06:12:18;;;;;;;38.60;20.60;;;;;;;0.86;70.95;98934.55;102890;1323;95304;-69
2021/11/25 06:14:45;;;;;;;37.90;19.00;;;;;;;0.88;70.96;98929.59;102914;1322;111572;-68
2021/11/25 06:17:13;;;;;;;37.50;18.10;;;;;;;0.91;71.08;98928.96;102884;1325;97908;-68
2021/11/25 06:19:45;;;;;;;35.80;18.50;;;;;;;0.93;71.07;98925.42;102822;1326;108266;-68
2021/11/25 06:22:13;;;;;;;39.20;19.00;;;;;;;0.94;70.91;98921.88;102909;1321;95354;-69
2021/11/25 06:24:41;;;;;;;37.80;19.30;;;;;;;0.94;70.96;98918.92;102950;1321;97899;-69
2021/11/25 06:27:09;;;;;;;36.60;18.10;;;;;;;0.93;70.95;98912.33;102925;1322;111618;-67
2021/11/25 06:29:37;;;;;;;34.10;18.60;;;;;;;0.93;70.90;98909.02;103057;1320;97884;-70
2021/11/25 06:32:09;;;;;;;36.30;19.30;;;;;;;0.94;70.87;98899.70;102945;1322;108510;-70
2021/11/25 06:34:42;;;;;;;36.50;18.40;;;;;;;0.96;70.83;98899.48;102907;1325;95343;-70
2021/11/25 06:37:13;;;;;;;36.60;18.50;;;;;;;0.96;70.96;98898.40;102741;1319;95208;-71
2021/11/25 06:39:41;;;;;;;40.20;19.80;;;;;;;0.98;70.77;98891.38;102923;1322;109659;-72
2021/11/25 06:42:09;;;;;;;38.20;18.20;;;;;;;0.98;70.91;98882.64;102974;1319;97850;-69
2021/11/25 06:44:38;;;;;;;37.70;20.20;;;;;;;0.98;70.79;98883.32;102856;1325;107849;-69
2021/11/25 06:47:06;;;;;;;36.20;17.80;;;;;;;1.00;70.85;98879.40;102848;1319;98112;-69
2021/11/25 06:49:38;;;;;;;31.20;16.70;;;;;;;1.03;71.01;98877.89;102988;1319;97938;-70
2021/11/25 06:52:08;;;;;;;38.00;17.50;;;;;;;1.06;70.92;98876.39;102865;1318;111400;-70
2021/11/25 06:54:41;;;;;;;34.60;16.50;;;;;;;1.10;70.90;98874.16;102964;1319;95200;-69
2021/11/25 06:57:08;;;;;;;32.40;14.80;;;;;;;1.13;70.81;98868.28;102912;1319;108397;-69
2021/11/25 06:59:38;;;;;;;31.60;15.90;;;;;;;1.15;70.83;98867.50;102759;1324;97880;-67
2021/11/25 07:02:08;;;;;;;34.30;16.40;;;;;;;1.17;70.85;98867.28;102583;1318;97927;-66
2021/11/25 07:04:37;;;;;;;30.20;15.70;;;;;;;1.20;71.00;98865.60;102797;1323;112070;-68
2021/11/25 07:07:05;;;;;;;31.70;15.40;;;;;;;1.25;70.89;98868.39;102772;1318;98029;-69
2021/11/25 07:09:33;;;;;;;36.30;17.70;;;;;;;1.29;70.80;98862.09;102653;1320;108498;-69
2021/11/25 07:12:05;;;;;;;36.00;18.50;;;;;;;1.33;70.65;98862.13;102710;1319;98356;-68
2021/11/25 07:14:34;;;;;;;40.00;19.10;;;;;;;1.37;70.73;98861.81;102839;1322;97903;-68
2021/11/25 07:17:06;;;;;;;36.60;19.60;;;;;;;1.41;70.62;98859.55;102807;1319;112077;-68
2021/11/25 07:19:34;;;;;;;38.10;19.80;;;;;;;1.45;70.54;98860.79;102761;1318;98012;-70
2021/11/25 07:22:05;;;;;;;38.20;20.00;;;;;;;1.49;70.42;98860.28;102913;1319;108531;-68
2021/11/25 07:24:38;;;;;;;37.40;18.80;;;;;;;1.55;70.82;98864.80;102672;1322;97854;-67
2021/11/25 07:27:06;;;;;;;40.50;21.30;;;;;;;1.59;70.79;98858.33;102866;1324;97903;-66
2021/11/25 07:29:36;;;;;;;36.20;19.40;;;;;;;1.64;70.44;98861.81;102860;1319;114272;-65
2021/11/25 07:32:07;;;;;;;35.30;17.50;;;;;;;1.69;70.48;98867.02;102849;1318;97874;-68
2021/11/25 07:34:36;;;;;;;36.30;18.20;;;;;;;1.73;70.46;98859.35;102879;1321;108402;-68
2021/11/25 07:37:06;;;;;;;36.20;17.50;;;;;;;1.78;70.47;98850.42;102821;1325;98112;-68
2021/11/25 07:39:34;;;;;;;34.00;17.40;;;;;;;1.83;70.13;98846.17;102851;1323;97956;-70
2021/11/25 07:42:06;;;;;;;33.40;16.50;;;;;;;1.90;70.35;98843.63;102871;1319;112222;-68
2021/11/25 07:44:39;;;;;;;34.70;17.20;;;;;;;1.96;70.06;98837.47;102834;1318;97966;-68
2021/11/25 07:47:07;;;;;;;37.10;18.70;;;;;;;2.00;70.00;98837.14;102845;1319;108485;-69
2021/11/25 07:49:37;;;;;;;37.80;20.10;;;;;;;2.04;70.22;98831.70;102805;1319;97921;-69
2021/11/25 07:52:07;;;;;;;36.90;19.40;;;;;;;2.09;70.25;98832.70;102633;1318;97928;-69
2021/11/25 07:54:36;;;;;;;38.50;18.80;;;;;;;2.16;69.87;98828.23;102751;1325;112251;-68
2021/11/25 07:57:05;;;;;;;38.20;18.30;;;;;;;2.19;69.94;98824.45;102931;1319;97977;-68
2021/11/25 07:59:33;;;;;;;33.40;16.70;;;;;;;2.25;70.09;98821.73;102835;1322;108129;-69
2021/11/25 08:02:01;;;;;;;32.30;17.10;;;;;;;2.30;69.89;98824.84;102850;1319;97877;-69
2021/11/25 08:04:33;;;;;;;36.10;17.40;;;;;;;2.36;69.81;98821.96;102962;1323;96475;-68
2021/11/25 08:07:01;;;;;;;39.10;18.40;;;;;;;2.40;69.30;98823.02;102854;1326;112133;-68
2021/11/25 08:09:29;;;;;;;37.40;18.30;;;;;;;2.44;69.68;98821.44;102612;1318;97836;-70
2021/11/25 08:11:57;;;;;;;34.90;16.50;;;;;;;2.48;69.56;98824.42;102772;1318;110373;-68
2021/11/25 08:14:25;;;;;;;32.30;16.70;;;;;;;2.51;69.83;98823.77;102812;1318;97970;-70
2021/11/25 08:16:57;;;;;;;31.20;16.10;;;;;;;2.56;69.85;98822.69;102796;1322;97872;-68
2021/11/25 08:19:27;;;;;;;32.10;16.70;;;;;;;2.63;69.79;98827.48;102816;1319;112181;-68
2021/11/25 08:21:56;;;;;;;31.90;15.80;;;;;;;2.71;69.53;98827.80;102605;1318;97825;-69
2021/11/25 08:24:25;;;;;;;32.70;16.60;;;;;;;2.80;69.45;98823.73;102795;1322;108577;-68
2021/11/25 08:26:57;;;;;;;32.10;14.10;;;;;;;2.91;69.59;98822.20;102828;1323;98014;-69
2021/11/25 08:29:29;;;;;;;29.30;14.60;;;;;;;3.01;69.27;98817.03;102808;1324;98321;-69
2021/11/25 08:31:57;;;;;;;28.40;14.60;;;;;;;3.09;69.26;98810.52;102848;1318;112229;-71
2021/11/25 08:34:26;;;;;;;28.70;14.00;;;;;;;3.19;69.39;98807.08;102838;1319;97907;-68
2021/11/25 08:36:58;;;;;;;30.40;15.20;;;;;;;3.35;69.15;98799.16;102880;1320;107991;-67
2021/11/25 08:39:25;;;;;;;27.60;12.50;;;;;;;3.54;69.01;98796.14;102974;1323;97988;-68
2021/11/25 08:41:57;;;;;;;26.90;12.60;;;;;;;3.76;68.76;98785.77;102951;1321;95291;-69
2021/11/25 08:44:27;;;;;;;27.00;12.10;;;;;;;3.99;68.40;98776.45;102761;1323;112035;-68
2021/11/25 08:46:59;;;;;;;26.50;12.70;;;;;;;4.25;68.60;98757.73;102667;1320;97993;-69
2021/11/25 08:49:29;;;;;;;26.90;11.90;;;;;;;4.72;68.07;98757.58;102923;1322;108511;-68
2021/11/25 08:51:58;;;;;;;23.10;10.90;;;;;;;4.94;68.27;98755.52;102687;1322;97973;-67
2021/11/25 08:54:30;;;;;;;22.80;10.10;;;;;;;5.17;67.57;98756.39;102850;1315;98297;-68
2021/11/25 08:56:59;;;;;;;25.00;12.40;;;;;;;5.30;66.56;98738.98;102876;1322;112080;-68
2021/11/25 08:59:31;;;;;;;24.40;11.50;;;;;;;5.46;66.72;98739.83;102766;1324;95785;-68
2021/11/25 09:01:59;;;;;;;25.20;11.50;;;;;;;5.79;66.13;98724.24;102732;1319;108657;-70
2021/11/25 09:04:32;;;;;;;34.10;12.30;;;;;;;6.19;66.11;98725.61;102642;1322;97155;-69
2021/11/25 09:07:02;;;;;;;23.40;10.80;;;;;;;6.58;65.33;98717.28;102739;1319;95313;-69
2021/11/25 09:09:30;;;;;;;23.30;9.80;;;;;;;6.91;64.82;98723.68;102653;1325;112126;-71
2021/11/25 09:11:59;;;;;;;22.10;10.70;;;;;;;7.07;64.45;98726.91;102745;1323;97817;-70
2021/11/25 09:14:29;;;;;;;23.00;11.00;;;;;;;7.29;64.99;98719.16;102894;1319;107755;-69
2021/11/25 09:17:04;;;;;;;23.30;11.30;;;;;;;7.47;65.06;98724.86;102899;1319;98625;-69
2021/11/25 09:19:32;;;;;;;22.50;10.90;;;;;;;7.52;64.55;98722.30;102908;1324;97957;-70
2021/11/25 09:22:01;;;;;;;23.20;10.60;;;;;;;7.44;64.38;98717.31;102866;1318;111608;-69
2021/11/25 09:24:28;;;;;;;22.20;10.70;;;;;;;7.48;64.52;98710.52;102812;1319;97917;-70
2021/11/25 09:27:03;;;;;;;23.90;10.60;;;;;;;7.48;63.94;98704.54;102859;1319;108317;-68
2021/11/25 09:29:32;;;;;;;24.10;10.70;;;;;;;7.47;63.82;98697.14;102915;1322;97882;-68
2021/11/25 09:32:01;;;;;;;22.50;10.70;;;;;;;7.55;64.24;98697.88;102840;1325;97999;-68
2021/11/25 09:34:29;;;;;;;23.20;10.80;;;;;;;7.65;63.70;98697.26;102789;1321;114274;-68
2021/11/25 09:36:57;;;;;;;22.50;9.80;;;;;;;7.70;63.53;98690.39;102699;1325;96462;-67
2021/11/25 09:39:25;;;;;;;20.90;9.70;;;;;;;7.72;63.10;98689.14;102874;1323;108389;-69
2021/11/25 09:41:56;;;;;;;29.70;11.00;;;;;;;7.74;62.77;98688.70;102609;1319;96502;-67
2021/11/25 09:44:24;;;;;;;22.10;10.70;;;;;;;7.61;61.31;98681.96;102709;1319;95669;-68
2021/11/25 09:46:58;;;;;;;21.70;10.00;;;;;;;7.52;62.16;98676.41;102687;1323;112120;-69
2021/11/25 09:49:31;;;;;;;23.60;10.10;;;;;;;7.49;60.29;98668.27;102787;1325;98047;-69
2021/11/25 09:52:02;;;;;;;24.20;11.00;;;;;;;7.30;60.28;98668.09;102947;1318;108554;-68
2021/11/25 09:54:34;;;;;;;23.60;10.30;;;;;;;7.27;60.31;98675.74;102960;1319;98066;-68
2021/11/25 09:57:02;;;;;;;22.20;9.50;;;;;;;7.24;59.79;98667.43;102897;1318;99022;-69
2021/11/25 09:59:30;;;;;;;21.40;10.10;;;;;;;7.15;59.25;98664.35;103012;1321;111776;-68
2021/11/25 10:02:01;;;;;;;21.50;10.20;;;;;;;7.12;59.59;98670.71;103084;1321;96500;-69
2021/11/25 10:04:29;;;;;;;21.50;9.80;;;;;;;7.15;60.06;98660.98;103000;1322;108760;-68
2021/11/25 10:06:59;;;;;;;23.10;10.60;;;;;;;7.27;59.42;98659.86;102874;1319;97931;-70
2021/11/25 10:09:39;;;;;;;21.30;9.30;;;;;;;7.22;58.89;98652.92;102835;1322;98027;-69
2021/11/25 10:12:27;;;;;;;21.20;10.10;;;;;;;7.22;59.10;98646.05;102889;1319;111127;-69
2021/11/25 10:14:54;;;;;;;23.80;10.20;;;;;;;7.20;58.31;98644.76;102945;1321;97972;-68
2021/11/25 10:17:48;;;;;;;22.90;11.00;;;;;;;7.14;58.27;98641.80;102826;1325;108350;-69
2021/11/25 10:20:19;;;;;;;20.40;9.90;;;;;;;7.12;58.37;98633.81;102766;1322;98104;-70
2021/11/25 10:23:03;;;;;;;21.50;9.80;;;;;;;7.11;57.86;98643.60;102770;1325;96480;-69
2021/11/25 10:25:59;;;;;;;22.50;9.30;;;;;;;7.10;58.15;98647.73;102693;1324;111502;-70
2021/11/25 10:29:01;;;;;;;24.10;10.70;;;;;;;7.14;58.09;98646.07;102723;1322;97905;-70
2021/11/25 10:31:38;;;;;;;23.50;11.20;;;;;;;7.19;58.41;98645.58;102139;1325;108761;-68
2021/11/25 10:34:20;;;;;;;21.70;10.10;;;;;;;7.28;58.87;98646.70;102578;1325;97855;-68
2021/11/25 10:42:17;;;;;;;21.90;10.50;;;;;;;7.65;58.16;98643.95;102636;1328;96640;-68
2021/11/25 10:44:50;;;;;;;22.00;10.90;;;;;;;7.65;57.83;98637.75;102646;1321;108445;-68
2021/11/25 10:47:28;;;;;;;20.80;10.40;;;;;;;7.63;57.93;98635.63;102384;1327;98916;-69
2021/11/25 10:50:04;;;;;;;21.60;9.10;;;;;;;7.70;58.46;98632.30;102932;1321;97906;-68
2021/11/25 10:52:36;;;;;;;21.20;10.10;;;;;;;7.84;58.13;98625.71;102545;1322;227290;-69
2021/11/25 10:55:12;;;;;;;20.80;9.40;;;;;;;7.86;57.60;98619.80;102603;1325;97911;-67
2021/11/25 10:57:42;;;;;;;22.80;10.90;;;;;;;7.88;57.23;98623.36;102621;1322;108453;-68
2021/11/25 11:00:19;;;;;;;21.70;10.60;;;;;;;7.85;57.40;98612.94;102645;1325;97911;-68
2021/11/25 11:02:46;;;;;;;20.90;9.90;;;;;;;7.89;57.58;98608.27;102776;1325;96455;-69
2021/11/25 11:05:21;;;;;;;19.70;9.00;;;;;;;7.95;56.91;98611.89;102697;1320;111943;-66
2021/11/25 11:07:49;;;;;;;20.90;9.70;;;;;;;7.90;56.50;98603.58;102652;1328;97785;-68
2021/11/25 11:10:29;;;;;;;20.80;9.90;;;;;;;7.82;57.18;98594.25;102627;1324;108377;-68
2021/11/25 11:13:25;;;;;;;21.00;9.30;;;;;;;7.91;56.62;98591.53;102689;1321;97953;-67
2021/11/25 11:18:56;;;;;;;19.80;8.90;;;;;;;7.99;56.03;98576.52;102982;1319;112371;-67
2021/11/25 11:21:42;;;;;;;20.90;9.20;;;;;;;7.91;56.58;98578.64;102976;1325;97759;-68
2021/11/25 11:24:15;;;;;;;23.50;9.50;;;;;;;7.95;56.34;98568.09;102965;1321;108511;-68
2021/11/25 11:26:50;;;;;;;17.80;8.00;;;;;;;7.96;56.37;98564.19;102692;1319;97976;-68
2021/11/25 11:29:22;;;;;;;20.80;9.20;;;;;;;8.00;56.04;98552.40;102824;1325;97941;-69
2021/11/25 11:31:56;;;;;;;19.50;8.90;;;;;;;7.95;56.14;98540.37;102709;1322;112069;-67
2021/11/25 11:34:26;;;;;;;22.50;9.40;;;;;;;7.99;56.27;98529.33;102826;1325;96484;-68
2021/11/25 11:36:56;;;;;;;20.10;8.30;;;;;;;8.06;56.22;98519.49;102780;1320;108292;-70
2021/11/25 11:39:29;;;;;;;18.80;8.70;;;;;;;8.03;55.69;98519.02;102901;1324;97809;-70
2021/11/25 11:42:02;;;;;;;19.50;8.50;;;;;;;7.99;55.48;98504.95;102593;1322;97967;-67
2021/11/25 11:44:30;;;;;;;20.50;9.20;;;;;;;7.91;55.05;98500.23;102727;1318;112136;-68